Athinai, Greece

9:17 PM EEST on July 02, 2015 (GMT +0300)
IATTICAI2 | | Change Station
CLOSE
Current Station
Personal Weather Station
Location: Ilion, ILION
Elevation: 410 ft
Nearby Weather Stations

Elev 410 ft 38.04 °N, 23.70 °E | Updated 1 second ago

Clear
Clear
78.4 °F
Feels Like 79 °F
N
10.4
Wind Variable Wind from North
Gusts 10.4 mph

Today
High -- | Low -- °F
--% Chance of Precip.
Yesterday
High -- | Low -- °F
Precip. -- in
6:06 AM 8:51 PM
Waxing Gibbous, 99% visible
Pressure 30.06 in
Visibility -9999.0 miles
Clouds
Heat Index 79 °F
Dew Point 54 °F
Humidity 43%
Rainfall 0.00 in
Snow Depth Not available.
UV Not available.
Pollen Not available.
Air Quality Not available.
Flu Activity Not available.
METAR LGEL 021750Z 34009KT CAVOK 27/09 Q1018

More Conditions Fewer Conditions

Pressure 30.06 in
Visibility -9999.0 miles
Clouds
Heat Index 79 °F
Dew Point 54 °F
Humidity 43%
Rainfall 0.00 in
Snow Depth Not available.
UV Not available.
Pollen Not available.
Air Quality Not available.
Flu Activity Not available.
METAR LGEL 021750Z 34009KT CAVOK 27/09 Q1018

More Conditions Fewer Conditions

10-Day Weather Forecast

×

Almanac

Astronomy

Jul. 02, 2015 Rise Set
Actual Time
Civil Twilight
Nautical Twilight
Astronomical Twilight
Moon
Length of Visible Light
Length of Day
Tomorrow will be .
, % of the Moon is Illuminated

Today's Extremes

Country Highs Country Lows

Community

WunderPhotos

Upload Photos

1,834,507 photos uploaded!

WunderBlogs® & News

Nearby

Air Quality

  Air Quality AQ Index Pollutant
Not available.

Snow Depth

Station Depth Elevation

Earthquake Activity

City Distance Mag. Time & Date
Minimum magnitude displayed is 2.5.

Coastal Water Temperatures

Place Temperature

Stations

Nearby Weather Stations

Station Location Temp. Windchill Dew Point Humidity Wind Precip. Elev Updated Type